My Paraffin — ZCGG8 — position and weather

sailwx.info

Track history (hours):
 
Tides and Currents Weather Stations Pressure Air Temp Water Temp Dewpoint Dewpoint Depression Visibility Wind Speed Wind Dir Waves Ship Positions

My Paraffin

Last reported at 2014-Sep-29 13:30 UTC. Time now 2014-Oct-02 16:42 UTC.
Position N 41°21' E 002°12'.

Length 60 m; draft 3.4 m.

Type: Pleasure craft. MMSI: 319646000.

Date/timePositionNaut miles runAvg speedWind from/ knotsBaromVisibWave heightAir tempDewpointWater temp
2014-Sep-29 13:30N 41°21' E 002°12'1111.7
2014-Sep-29 12:32N 41°23' E 002°27'1515.6
2014-Sep-29 11:33N 41°28' E 002°46'1815.8
2014-Sep-29 10:23N 41°33' E 003°09'3015.1
2014-Sep-29 08:25N 41°46' E 003°46'1311.8
2014-Sep-29 07:18N 41°51' E 004°02'811.0
2014-Sep-29 06:33N 41°55' E 004°12'5810.8
2014-Sep-29 01:09N 42°23' E 005°21'2911.2
2014-Sep-28 22:33N 42°39' E 005°54'1211.9
2014-Sep-28 21:33N 42°44' E 006°08'1212.4
2014-Sep-28 20:33N 42°51' E 006°23'1212.4
2014-Sep-28 19:32N 42°58' E 006°37'1212.4
2014-Sep-28 18:33N 43°08' E 006°47'1212.2
2014-Sep-28 17:34N 43°18' E 006°56'1211.8
2014-Sep-28 16:33N 43°28' E 007°05'8 8.4
2014-Sep-28 15:33N 43°36' E 007°08'0 0.0
2014-Sep-28 14:33N 43°36' E 007°08'0 0.0
2014-Sep-28 13:33N 43°36' E 007°08'0 0.0
2014-Sep-28 12:33N 43°36' E 007°08'0 0.0
2014-Sep-28 11:33N 43°36' E 007°08'0 0.0
2014-Sep-28 10:33N 43°36' E 007°08'0 0.0
2014-Sep-28 09:33N 43°36' E 007°08'0 0.0
2014-Sep-28 08:33N 43°36' E 007°08'0 0.0
2014-Sep-28 07:33N 43°36' E 007°08'0 0.0
2014-Sep-28 06:33N 43°36' E 007°08'0 0.0
2014-Sep-28 05:33N 43°36' E 007°08'1010.2
2014-Sep-28 04:33N 43°40' E 007°21'6 0.7
2014-Sep-27 20:27N 43°44' E 007°26'3 0.4
2014-Sep-27 13:28N 43°42' E 007°25'1112.1
2014-Sep-27 12:33N 43°37' E 007°11'2 2.2
2014-Sep-27 11:33N 43°36' E 007°08'0 0.0
2014-Sep-27 10:33N 43°36' E 007°08'0 0.0
2014-Sep-27 09:33N 43°36' E 007°08'0 0.0
2014-Sep-27 08:33N 43°36' E 007°08'2 2.2
2014-Sep-27 07:33N 43°34' E 007°10'1111.2
2014-Sep-27 06:33N 43°26' E 006°59'1212.2
2014-Sep-27 05:34N 43°20' E 006°44'6 6.0
2014-Sep-27 04:33N 43°16' E 006°37'0 0.0
2014-Sep-27 03:33N 43°16' E 006°37'0 0.0
2014-Sep-27 02:33N 43°16' E 006°37'0 0.0
2014-Sep-27 01:33N 43°16' E 006°37'0 0.0
2014-Sep-27 00:33N 43°16' E 006°37'0 0.0
2014-Sep-26 23:34N 43°16' E 006°37'0 0.0
2014-Sep-26 22:33N 43°16' E 006°37'0 0.0
2014-Sep-26 21:34N 43°16' E 006°37'0 0.0
2014-Sep-26 20:33N 43°16' E 006°37'0 0.0
2014-Sep-26 19:33N 43°16' E 006°37'0 0.0
2014-Sep-26 18:33N 43°16' E 006°37'0 0.0
2014-Sep-26 17:34N 43°16' E 006°37'0 0.0
2014-Sep-26 16:33N 43°16' E 006°37'0 0.0
2014-Sep-26 15:33N 43°16' E 006°37'0 0.0
2014-Sep-26 14:32N 43°16' E 006°37'0 0.0
2014-Sep-26 13:33N 43°16' E 006°37'0 0.0
2014-Sep-26 12:33N 43°16' E 006°37'0 0.0
2014-Sep-26 11:34N 43°16' E 006°37'0 0.0
2014-Sep-26 10:31N 43°16' E 006°37'0 0.0
2014-Sep-26 09:33N 43°16' E 006°37'0 0.0
2014-Sep-26 08:33N 43°16' E 006°37'7 7.0
2014-Sep-26 07:33N 43°20' E 006°46'1212.3
2014-Sep-26 06:34N 43°26' E 006°60'1312.4
2014-Sep-26 05:29N 43°35' E 007°14'1212.5
2014-Sep-26 04:33N 43°43' E 007°26'2 0.1
2014-Sep-25 15:06N 43°45' E 007°27'0 0.0
2014-Sep-25 09:29N 43°45' E 007°27'0 0.0
2014-Sep-24 22:04N 43°45' E 007°27'0 0.0
2014-Sep-24 11:17N 43°45' E 007°27'0 0.0
2014-Sep-24 08:18N 43°45' E 007°27'0 0.0
2014-Sep-24 07:15N 43°45' E 007°27'0 0.0
2014-Sep-24 06:33N 43°45' E 007°27'0 0.0
2014-Sep-23 09:12N 43°45' E 007°27'0 0.0
2014-Sep-23 08:27N 43°45' E 007°27'0 0.0
2014-Sep-23 02:27N 43°45' E 007°27'0 0.0
2014-Sep-22 19:26N 43°45' E 007°27'0 0.0
2014-Sep-22 17:16N 43°45' E 007°27'0 0.0
2014-Sep-22 16:21N 43°45' E 007°27'0 0.0
2014-Sep-22 15:20N 43°45' E 007°27'0 0.0
2014-Sep-22 14:20N 43°45' E 007°27'  
Track history (hours):
 
Tides and Currents Weather Stations Pressure Air Temp Water Temp Dewpoint Dewpoint Depression Visibility Wind Speed Wind Dir Waves Ship Positions

My Paraffin

Last reported at 2014-Sep-29 13:30 UTC. Time now 2014-Oct-02 16:42 UTC.
Position N 41°21' E 002°12'.

Length 60 m; draft 3.4 m.

Type: Pleasure craft. MMSI: 319646000.

Date/timePositionNaut miles runAvg speedWind from/ knotsBaromVisibWave heightAir tempDewpointWater temp
2014-Sep-29 13:30N 41°21' E 002°12'1111.7
2014-Sep-29 12:32N 41°23' E 002°27'1515.6
2014-Sep-29 11:33N 41°28' E 002°46'1815.8
2014-Sep-29 10:23N 41°33' E 003°09'3015.1
2014-Sep-29 08:25N 41°46' E 003°46'1311.8
2014-Sep-29 07:18N 41°51' E 004°02'811.0
2014-Sep-29 06:33N 41°55' E 004°12'5810.8
2014-Sep-29 01:09N 42°23' E 005°21'2911.2
2014-Sep-28 22:33N 42°39' E 005°54'1211.9
2014-Sep-28 21:33N 42°44' E 006°08'1212.4
2014-Sep-28 20:33N 42°51' E 006°23'1212.4
2014-Sep-28 19:32N 42°58' E 006°37'1212.4
2014-Sep-28 18:33N 43°08' E 006°47'1212.2
2014-Sep-28 17:34N 43°18' E 006°56'1211.8
2014-Sep-28 16:33N 43°28' E 007°05'8 8.4
2014-Sep-28 15:33N 43°36' E 007°08'0 0.0
2014-Sep-28 14:33N 43°36' E 007°08'0 0.0
2014-Sep-28 13:33N 43°36' E 007°08'0 0.0
2014-Sep-28 12:33N 43°36' E 007°08'0 0.0
2014-Sep-28 11:33N 43°36' E 007°08'0 0.0
2014-Sep-28 10:33N 43°36' E 007°08'0 0.0
2014-Sep-28 09:33N 43°36' E 007°08'0 0.0
2014-Sep-28 08:33N 43°36' E 007°08'0 0.0
2014-Sep-28 07:33N 43°36' E 007°08'0 0.0
2014-Sep-28 06:33N 43°36' E 007°08'0 0.0
2014-Sep-28 05:33N 43°36' E 007°08'1010.2
2014-Sep-28 04:33N 43°40' E 007°21'6 0.7
2014-Sep-27 20:27N 43°44' E 007°26'3 0.4
2014-Sep-27 13:28N 43°42' E 007°25'1112.1
2014-Sep-27 12:33N 43°37' E 007°11'2 2.2
2014-Sep-27 11:33N 43°36' E 007°08'0 0.0
2014-Sep-27 10:33N 43°36' E 007°08'0 0.0
2014-Sep-27 09:33N 43°36' E 007°08'0 0.0
2014-Sep-27 08:33N 43°36' E 007°08'2 2.2
2014-Sep-27 07:33N 43°34' E 007°10'1111.2
2014-Sep-27 06:33N 43°26' E 006°59'1212.2
2014-Sep-27 05:34N 43°20' E 006°44'6 6.0
2014-Sep-27 04:33N 43°16' E 006°37'0 0.0
2014-Sep-27 03:33N 43°16' E 006°37'0 0.0
2014-Sep-27 02:33N 43°16' E 006°37'0 0.0
2014-Sep-27 01:33N 43°16' E 006°37'0 0.0
2014-Sep-27 00:33N 43°16' E 006°37'0 0.0
2014-Sep-26 23:34N 43°16' E 006°37'0 0.0
2014-Sep-26 22:33N 43°16' E 006°37'0 0.0
2014-Sep-26 21:34N 43°16' E 006°37'0 0.0
2014-Sep-26 20:33N 43°16' E 006°37'0 0.0
2014-Sep-26 19:33N 43°16' E 006°37'0 0.0
2014-Sep-26 18:33N 43°16' E 006°37'0 0.0
2014-Sep-26 17:34N 43°16' E 006°37'0 0.0
2014-Sep-26 16:33N 43°16' E 006°37'0 0.0
2014-Sep-26 15:33N 43°16' E 006°37'0 0.0
2014-Sep-26 14:32N 43°16' E 006°37'0 0.0
2014-Sep-26 13:33N 43°16' E 006°37'0 0.0
2014-Sep-26 12:33N 43°16' E 006°37'0 0.0
2014-Sep-26 11:34N 43°16' E 006°37'0 0.0
2014-Sep-26 10:31N 43°16' E 006°37'0 0.0
2014-Sep-26 09:33N 43°16' E 006°37'0 0.0
2014-Sep-26 08:33N 43°16' E 006°37'7 7.0
2014-Sep-26 07:33N 43°20' E 006°46'1212.3
2014-Sep-26 06:34N 43°26' E 006°60'1312.4
2014-Sep-26 05:29N 43°35' E 007°14'1212.5
2014-Sep-26 04:33N 43°43' E 007°26'2 0.1
2014-Sep-25 15:06N 43°45' E 007°27'0 0.0
2014-Sep-25 09:29N 43°45' E 007°27'0 0.0
2014-Sep-24 22:04N 43°45' E 007°27'0 0.0
2014-Sep-24 11:17N 43°45' E 007°27'0 0.0
2014-Sep-24 08:18N 43°45' E 007°27'0 0.0
2014-Sep-24 07:15N 43°45' E 007°27'0 0.0
2014-Sep-24 06:33N 43°45' E 007°27'0 0.0
2014-Sep-23 09:12N 43°45' E 007°27'0 0.0
2014-Sep-23 08:27N 43°45' E 007°27'0 0.0
2014-Sep-23 02:27N 43°45' E 007°27'0 0.0
2014-Sep-22 19:26N 43°45' E 007°27'0 0.0
2014-Sep-22 17:16N 43°45' E 007°27'0 0.0
2014-Sep-22 16:21N 43°45' E 007°27'0 0.0
2014-Sep-22 15:20N 43°45' E 007°27'0 0.0
2014-Sep-22 14:20N 43°45' E 007°27'  

Dump ship's entire track history